sensor_id;sensor_type;location;lat;lon;timestamp;pressure;altitude;pressure_sealevel;temperature;humidity
30554;BME280;17335;50.720;7.452;2023-01-28T00:01:18;100291.72;;;1.68;100.00
30554;BME280;17335;50.720;7.452;2023-01-28T00:03:48;100302.06;;;1.74;100.00
30554;BME280;17335;50.720;7.452;2023-01-28T00:06:15;100291.94;;;1.63;100.00
30554;BME280;17335;50.720;7.452;2023-01-28T00:08:41;100298.16;;;1.62;100.00
30554;BME280;17335;50.720;7.452;2023-01-28T00:11:10;100300.91;;;1.59;100.00
30554;BME280;17335;50.720;7.452;2023-01-28T00:13:38;100292.25;;;1.56;100.00
30554;BME280;17335;50.720;7.452;2023-01-28T00:16:06;100286.97;;;1.56;100.00
30554;BME280;17335;50.720;7.452;2023-01-28T00:18:34;100285.38;;;1.52;100.00
30554;BME280;17335;50.720;7.452;2023-01-28T00:21:04;100289.13;;;1.66;100.00
30554;BME280;17335;50.720;7.452;2023-01-28T00:23:33;100287.56;;;1.62;100.00
30554;BME280;17335;50.720;7.452;2023-01-28T00:26:02;100286.97;;;1.76;100.00
30554;BME280;17335;50.720;7.452;2023-01-28T00:28:30;100285.13;;;1.78;100.00
30554;BME280;17335;50.720;7.452;2023-01-28T00:30:56;100267.91;;;1.68;100.00
30554;BME280;17335;50.720;7.452;2023-01-28T00:33:23;100285.59;;;1.67;100.00
30554;BME280;17335;50.720;7.452;2023-01-28T00:36:00;100281.25;;;1.65;100.00
30554;BME280;17335;50.720;7.452;2023-01-28T00:38:28;100283.50;;;1.54;100.00
30554;BME280;17335;50.720;7.452;2023-01-28T00:40:54;100286.03;;;1.57;100.00
30554;BME280;17335;50.720;7.452;2023-01-28T00:43:21;100288.94;;;1.50;100.00
30554;BME280;17335;50.720;7.452;2023-01-28T00:45:48;100288.81;;;1.54;100.00
30554;BME280;17335;50.720;7.452;2023-01-28T00:48:15;100287.28;;;1.48;100.00
30554;BME280;17335;50.720;7.452;2023-01-28T00:50:43;100290.91;;;1.45;100.00
30554;BME280;17335;50.720;7.452;2023-01-28T00:53:10;100283.63;;;1.50;100.00
30554;BME280;17335;50.720;7.452;2023-01-28T00:55:37;100284.50;;;1.51;100.00
30554;BME280;17335;50.720;7.452;2023-01-28T00:58:04;100283.63;;;1.50;100.00
30554;BME280;17335;50.720;7.452;2023-01-28T01:00:30;100289.06;;;1.47;100.00
30554;BME280;17335;50.720;7.452;2023-01-28T01:02:58;100297.78;;;1.49;100.00
30554;BME280;17335;50.720;7.452;2023-01-28T01:05:25;100296.06;;;1.48;100.00
30554;BME280;17335;50.720;7.452;2023-01-28T01:07:51;100290.78;;;1.48;100.00
30554;BME280;17335;50.720;7.452;2023-01-28T01:10:18;100287.06;;;1.53;100.00
30554;BME280;17335;50.720;7.452;2023-01-28T01:12:46;100288.94;;;1.50;100.00
30554;BME280;17335;50.720;7.452;2023-01-28T01:15:13;100303.91;;;1.52;100.00
30554;BME280;17335;50.720;7.452;2023-01-28T01:17:42;100289.72;;;1.53;100.00
30554;BME280;17335;50.720;7.452;2023-01-28T01:20:16;100285.44;;;1.50;100.00
30554;BME280;17335;50.720;7.452;2023-01-28T01:22:44;100290.78;;;1.48;100.00
30554;BME280;17335;50.720;7.452;2023-01-28T01:25:12;100286.53;;;1.44;100.00
30554;BME280;17335;50.720;7.452;2023-01-28T01:27:40;100286.47;;;1.46;100.00
30554;BME280;17335;50.720;7.452;2023-01-28T01:30:07;100297.53;;;1.56;100.00
30554;BME280;17335;50.720;7.452;2023-01-28T01:32:34;100295.13;;;1.49;100.00
30554;BME280;17335;50.720;7.452;2023-01-28T01:35:03;100289.84;;;1.49;100.00
30554;BME280;17335;50.720;7.452;2023-01-28T01:37:32;100285.50;;;1.48;100.00
30554;BME280;17335;50.720;7.452;2023-01-28T01:39:58;100291.03;;;1.42;100.00
30554;BME280;17335;50.720;7.452;2023-01-28T01:42:27;100290.56;;;1.33;100.00
30554;BME280;17335;50.720;7.452;2023-01-28T01:45:05;100296.09;;;1.26;100.00
30554;BME280;17335;50.720;7.452;2023-01-28T01:52:42;100281.47;;;1.18;100.00
30554;BME280;17335;50.720;7.452;2023-01-28T01:55:13;100270.03;;;1.17;100.00
30554;BME280;17335;50.720;7.452;2023-01-28T01:57:43;100276.97;;;1.20;100.00
30554;BME280;17335;50.720;7.452;2023-01-28T02:00:11;100270.03;;;1.17;100.00
30554;BME280;17335;50.720;7.452;2023-01-28T02:02:45;100269.09;;;1.18;100.00
30554;BME280;17335;50.720;7.452;2023-01-28T02:05:14;100275.25;;;1.19;100.00
30554;BME280;17335;50.720;7.452;2023-01-28T02:07:42;100286.63;;;1.21;100.00
30554;BME280;17335;50.720;7.452;2023-01-28T02:10:11;100288.78;;;1.33;100.00
30554;BME280;17335;50.720;7.452;2023-01-28T02:12:43;100293.84;;;1.17;100.00
30554;BME280;17335;50.720;7.452;2023-01-28T02:15:18;100297.94;;;1.02;100.00
30554;BME280;17335;50.720;7.452;2023-01-28T02:17:46;100309.13;;;0.87;100.00
30554;BME280;17335;50.720;7.452;2023-01-28T02:20:18;100300.50;;;0.82;100.00
30554;BME280;17335;50.720;7.452;2023-01-28T02:28:48;100311.66;;;0.66;100.00
30554;BME280;17335;50.720;7.452;2023-01-28T02:31:23;100306.91;;;0.76;100.00
30554;BME280;17335;50.720;7.452;2023-01-28T02:36:47;100311.75;;;0.87;100.00
30554;BME280;17335;50.720;7.452;2023-01-28T02:39:18;100315.50;;;0.81;100.00
30554;BME280;17335;50.720;7.452;2023-01-28T02:41:52;100309.47;;;0.78;100.00
30554;BME280;17335;50.720;7.452;2023-01-28T02:44:21;100315.72;;;0.75;100.00
30554;BME280;17335;50.720;7.452;2023-01-28T02:46:51;100309.22;;;0.84;100.00
30554;BME280;17335;50.720;7.452;2023-01-28T02:49:47;100322.66;;;1.01;100.00
30554;BME280;17335;50.720;7.452;2023-01-28T02:52:33;100313.13;;;0.97;100.00
30554;BME280;17335;50.720;7.452;2023-01-28T03:01:25;100312.06;;;0.79;100.00
30554;BME280;17335;50.720;7.452;2023-01-28T03:04:14;100316.59;;;0.75;100.00
30554;BME280;17335;50.720;7.452;2023-01-28T03:06:49;100324.50;;;0.75;100.00
30554;BME280;17335;50.720;7.452;2023-01-28T03:09:19;100318.44;;;0.73;100.00
30554;BME280;17335;50.720;7.452;2023-01-28T03:11:53;100324.66;;;0.72;100.00
30554;BME280;17335;50.720;7.452;2023-01-28T03:14:40;100326.56;;;0.69;100.00
30554;BME280;17335;50.720;7.452;2023-01-28T03:17:31;100330.97;;;0.68;100.00
30554;BME280;17335;50.720;7.452;2023-01-28T03:20:21;100335.97;;;0.76;100.00
30554;BME280;17335;50.720;7.452;2023-01-28T03:23:11;100326.59;;;0.67;100.00
30554;BME280;17335;50.720;7.452;2023-01-28T03:25:59;100332.34;;;0.79;100.00
30554;BME280;17335;50.720;7.452;2023-01-28T03:28:47;100349.97;;;0.78;100.00
30554;BME280;17335;50.720;7.452;2023-01-28T03:31:34;100342.53;;;0.66;100.00
30554;BME280;17335;50.720;7.452;2023-01-28T03:34:21;100349.19;;;0.76;100.00
30554;BME280;17335;50.720;7.452;2023-01-28T03:37:07;100339.25;;;0.59;100.00
30554;BME280;17335;50.720;7.452;2023-01-28T03:39:36;100336.50;;;0.62;100.00
30554;BME280;17335;50.720;7.452;2023-01-28T03:42:11;100348.03;;;0.60;100.00
30554;BME280;17335;50.720;7.452;2023-01-28T03:44:39;100345.44;;;0.58;100.00
30554;BME280;17335;50.720;7.452;2023-01-28T03:47:25;100339.94;;;0.64;100.00
30554;BME280;17335;50.720;7.452;2023-01-28T03:49:53;100339.69;;;0.47;100.00
30554;BME280;17335;50.720;7.452;2023-01-28T03:52:23;100343.34;;;0.43;100.00
30554;BME280;17335;50.720;7.452;2023-01-28T03:54:49;100336.22;;;0.45;100.00
30554;BME280;17335;50.720;7.452;2023-01-28T03:57:20;100345.03;;;0.45;100.00
30554;BME280;17335;50.720;7.452;2023-01-28T03:59:47;100353.34;;;0.34;100.00
30554;BME280;17335;50.720;7.452;2023-01-28T04:02:21;100348.19;;;0.31;100.00
30554;BME280;17335;50.720;7.452;2023-01-28T04:04:48;100356.94;;;0.32;100.00
30554;BME280;17335;50.720;7.452;2023-01-28T04:07:16;100350.81;;;0.31;100.00
30554;BME280;17335;50.720;7.452;2023-01-28T04:09:43;100349.88;;;0.32;100.00
30554;BME280;17335;50.720;7.452;2023-01-28T04:12:10;100355.06;;;0.35;100.00
30554;BME280;17335;50.720;7.452;2023-01-28T04:14:36;100352.41;;;0.35;100.00
30554;BME280;17335;50.720;7.452;2023-01-28T04:17:05;100353.13;;;0.41;100.00
30554;BME280;17335;50.720;7.452;2023-01-28T04:19:32;100345.88;;;0.46;100.00
30554;BME280;17335;50.720;7.452;2023-01-28T04:22:09;100342.78;;;0.34;100.00
30554;BME280;17335;50.720;7.452;2023-01-28T04:24:36;100345.44;;;0.34;100.00
30554;BME280;17335;50.720;7.452;2023-01-28T04:27:02;100347.59;;;0.23;100.00
30554;BME280;17335;50.720;7.452;2023-01-28T04:29:29;100343.25;;;0.21;100.00
30554;BME280;17335;50.720;7.452;2023-01-28T04:31:56;100341.59;;;0.18;100.00
30554;BME280;17335;50.720;7.452;2023-01-28T04:34:23;100343.34;;;0.19;100.00
30554;BME280;17335;50.720;7.452;2023-01-28T04:36:49;100345.28;;;0.14;100.00
30554;BME280;17335;50.720;7.452;2023-01-28T04:39:16;100347.22;;;0.09;100.00
30554;BME280;17335;50.720;7.452;2023-01-28T04:41:42;100346.22;;;0.11;100.00
30554;BME280;17335;50.720;7.452;2023-01-28T04:44:09;100347.03;;;0.13;100.00
30554;BME280;17335;50.720;7.452;2023-01-28T04:46:35;100348.81;;;0.13;100.00
30554;BME280;17335;50.720;7.452;2023-01-28T04:49:02;100353.25;;;0.12;100.00
30554;BME280;17335;50.720;7.452;2023-01-28T04:51:29;100355.13;;;0.09;100.00
30554;BME280;17335;50.720;7.452;2023-01-28T04:53:56;100364.44;;;-0.06;100.00
30554;BME280;17335;50.720;7.452;2023-01-28T04:56:22;100368.16;;;-0.12;100.00
30554;BME280;17335;50.720;7.452;2023-01-28T04:58:49;100366.50;;;-0.16;100.00
30554;BME280;17335;50.720;7.452;2023-01-28T05:01:15;100362.25;;;-0.20;100.00
30554;BME280;17335;50.720;7.452;2023-01-28T05:03:42;100365.91;;;-0.24;100.00
30554;BME280;17335;50.720;7.452;2023-01-28T05:06:08;100367.75;;;-0.26;100.00
30554;BME280;17335;50.720;7.452;2023-01-28T05:08:35;100367.97;;;-0.32;100.00
30554;BME280;17335;50.720;7.452;2023-01-28T05:11:02;100376.78;;;-0.33;100.00
30554;BME280;17335;50.720;7.452;2023-01-28T05:13:28;100371.59;;;-0.36;100.00
30554;BME280;17335;50.720;7.452;2023-01-28T05:15:55;100375.34;;;-0.44;100.00
30554;BME280;17335;50.720;7.452;2023-01-28T05:18:21;100378.13;;;-0.48;100.00
30554;BME280;17335;50.720;7.452;2023-01-28T05:20:48;100387.19;;;-0.57;100.00
30554;BME280;17335;50.720;7.452;2023-01-28T05:23:14;100394.44;;;-0.64;100.00
30554;BME280;17335;50.720;7.452;2023-01-28T05:25:41;100396.22;;;-0.64;100.00
30554;BME280;17335;50.720;7.452;2023-01-28T05:28:07;100389.28;;;-0.67;100.00
30554;BME280;17335;50.720;7.452;2023-01-28T05:30:34;100394.44;;;-0.64;100.00
30554;BME280;17335;50.720;7.452;2023-01-28T05:33:00;100391.06;;;-0.69;100.00
30554;BME280;17335;50.720;7.452;2023-01-28T05:35:27;100393.66;;;-0.67;100.00
30554;BME280;17335;50.720;7.452;2023-01-28T05:37:53;100399.72;;;-0.64;100.00
30554;BME280;17335;50.720;7.452;2023-01-28T05:40:20;100393.66;;;-0.67;100.00
30554;BME280;17335;50.720;7.452;2023-01-28T05:42:46;100394.44;;;-0.64;100.00
30554;BME280;17335;50.720;7.452;2023-01-28T05:45:13;100398.84;;;-0.64;100.00
30554;BME280;17335;50.720;7.452;2023-01-28T05:47:40;100394.56;;;-0.67;100.00
30554;BME280;17335;50.720;7.452;2023-01-28T05:50:08;100396.13;;;-0.61;100.00
30554;BME280;17335;50.720;7.452;2023-01-28T05:52:35;100401.41;;;-0.61;100.00
30554;BME280;17335;50.720;7.452;2023-01-28T05:55:02;100403.13;;;-0.60;100.00
30554;BME280;17335;50.720;7.452;2023-01-28T05:57:29;100404.88;;;-0.61;100.00
30554;BME280;17335;50.720;7.452;2023-01-28T05:59:55;100398.00;;;-0.65;100.00
30554;BME280;17335;50.720;7.452;2023-01-28T06:02:22;100398.19;;;-0.71;100.00
30554;BME280;17335;50.720;7.452;2023-01-28T06:04:49;100410.84;;;-0.82;100.00
30554;BME280;17335;50.720;7.452;2023-01-28T06:07:15;100412.06;;;-0.94;100.00
30554;BME280;17335;50.720;7.452;2023-01-28T06:09:46;100409.44;;;-0.94;100.00
30554;BME280;17335;50.720;7.452;2023-01-28T06:12:13;100418.44;;;-1.01;100.00
30554;BME280;17335;50.720;7.452;2023-01-28T06:14:40;100412.44;;;-1.06;100.00
30554;BME280;17335;50.720;7.452;2023-01-28T06:17:07;100417.78;;;-1.09;100.00
30554;BME280;17335;50.720;7.452;2023-01-28T06:19:34;100424.97;;;-1.15;100.00
30554;BME280;17335;50.720;7.452;2023-01-28T06:22:00;100427.09;;;-1.29;100.00
30554;BME280;17335;50.720;7.452;2023-01-28T06:24:27;100436.97;;;-1.36;100.00
30554;BME280;17335;50.720;7.452;2023-01-28T06:26:53;100435.31;;;-1.40;100.00
30554;BME280;17335;50.720;7.452;2023-01-28T06:29:20;100434.66;;;-1.48;100.00
30554;BME280;17335;50.720;7.452;2023-01-28T06:31:46;100431.16;;;-1.48;100.00
30554;BME280;17335;50.720;7.452;2023-01-28T06:34:13;100440.97;;;-1.54;100.00
30554;BME280;17335;50.720;7.452;2023-01-28T06:36:40;100446.22;;;-1.54;100.00
30554;BME280;17335;50.720;7.452;2023-01-28T06:39:07;100452.66;;;-1.64;100.00
30554;BME280;17335;50.720;7.452;2023-01-28T06:41:33;100443.78;;;-1.60;100.00
30554;BME280;17335;50.720;7.452;2023-01-28T06:44:00;100449.09;;;-1.61;100.00
30554;BME280;17335;50.720;7.452;2023-01-28T06:46:27;100446.41;;;-1.60;100.00
30554;BME280;17335;50.720;7.452;2023-01-28T06:48:54;100445.41;;;-1.56;100.00
30554;BME280;17335;50.720;7.452;2023-01-28T06:51:20;100453.16;;;-1.49;100.00
30554;BME280;17335;50.720;7.452;2023-01-28T06:53:47;100451.31;;;-1.46;100.00
30554;BME280;17335;50.720;7.452;2023-01-28T06:56:13;100457.31;;;-1.41;100.00
30554;BME280;17335;50.720;7.452;2023-01-28T06:58:40;100464.31;;;-1.41;100.00
30554;BME280;17335;50.720;7.452;2023-01-28T07:01:06;100474.88;;;-1.41;100.00
30554;BME280;17335;50.720;7.452;2023-01-28T07:03:33;100474.78;;;-1.38;100.00
30554;BME280;17335;50.720;7.452;2023-01-28T07:05:59;100470.22;;;-1.32;100.00
30554;BME280;17335;50.720;7.452;2023-01-28T07:08:26;100478.00;;;-1.27;100.00
30554;BME280;17335;50.720;7.452;2023-01-28T07:10:52;100481.47;;;-1.25;100.00
30554;BME280;17335;50.720;7.452;2023-01-28T07:13:19;100484.84;;;-1.20;100.00
30554;BME280;17335;50.720;7.452;2023-01-28T07:15:45;100491.66;;;-1.13;100.00
30554;BME280;17335;50.720;7.452;2023-01-28T07:18:12;100486.22;;;-1.06;100.00
30554;BME280;17335;50.720;7.452;2023-01-28T07:20:38;100473.78;;;-1.01;100.00
30554;BME280;17335;50.720;7.452;2023-01-28T07:23:05;100480.72;;;-0.99;100.00
30554;BME280;17335;50.720;7.452;2023-01-28T07:25:32;100473.63;;;-0.97;100.00
30554;BME280;17335;50.720;7.452;2023-01-28T07:27:58;100484.06;;;-0.92;100.00
30554;BME280;17335;50.720;7.452;2023-01-28T07:30:25;100466.34;;;-0.87;100.00
30554;BME280;17335;50.720;7.452;2023-01-28T07:32:56;100464.44;;;-0.82;100.00
30554;BME280;17335;50.720;7.452;2023-01-28T07:35:24;100470.34;;;-0.73;100.00
30554;BME280;17335;50.720;7.452;2023-01-28T07:37:56;100463.28;;;-0.73;100.00
30554;BME280;17335;50.720;7.452;2023-01-28T07:40:23;100458.75;;;-0.68;100.00
30554;BME280;17335;50.720;7.452;2023-01-28T07:42:50;100471.00;;;-0.65;100.00
30554;BME280;17335;50.720;7.452;2023-01-28T07:45:22;100464.88;;;-0.67;100.00
30554;BME280;17335;50.720;7.452;2023-01-28T07:47:57;100468.47;;;-0.70;100.00
30554;BME280;17335;50.720;7.452;2023-01-28T07:50:24;100476.16;;;-0.62;100.00
30554;BME280;17335;50.720;7.452;2023-01-28T07:52:51;100474.16;;;-0.54;100.00
30554;BME280;17335;50.720;7.452;2023-01-28T07:55:17;100488.44;;;-0.61;100.00
30554;BME280;17335;50.720;7.452;2023-01-28T07:57:51;100483.38;;;-0.69;100.00
30554;BME280;17335;50.720;7.452;2023-01-28T08:00:19;100472.09;;;-0.74;100.00
30554;BME280;17335;50.720;7.452;2023-01-28T08:02:46;100476.44;;;-0.71;100.00
30554;BME280;17335;50.720;7.452;2023-01-28T08:05:17;100485.91;;;-0.66;100.00
30554;BME280;17335;50.720;7.452;2023-01-28T08:07:47;100490.94;;;-0.57;100.00
30554;BME280;17335;50.720;7.452;2023-01-28T08:10:16;100493.38;;;-0.50;100.00
30554;BME280;17335;50.720;7.452;2023-01-28T08:12:51;100498.69;;;-0.52;100.00
30554;BME280;17335;50.720;7.452;2023-01-28T08:15:18;100488.00;;;-0.47;100.00
30554;BME280;17335;50.720;7.452;2023-01-28T08:17:46;100490.63;;;-0.46;100.00
30554;BME280;17335;50.720;7.452;2023-01-28T08:20:13;100490.66;;;-0.47;100.00
30554;BME280;17335;50.720;7.452;2023-01-28T08:22:41;100484.56;;;-0.49;100.00
30554;BME280;17335;50.720;7.452;2023-01-28T08:25:09;100486.28;;;-0.48;100.00
30554;BME280;17335;50.720;7.452;2023-01-28T08:27:36;100491.50;;;-0.47;100.00
30554;BME280;17335;50.720;7.452;2023-01-28T08:30:04;100487.75;;;-0.40;100.00
30554;BME280;17335;50.720;7.452;2023-01-28T08:32:32;100482.22;;;-0.30;100.00
30554;BME280;17335;50.720;7.452;2023-01-28T08:34:59;100483.75;;;-0.23;100.00
30554;BME280;17335;50.720;7.452;2023-01-28T08:37:26;100476.38;;;-0.12;100.00
30554;BME280;17335;50.720;7.452;2023-01-28T08:39:53;100481.38;;;-0.04;100.00
30554;BME280;17335;50.720;7.452;2023-01-28T08:42:20;100475.88;;;0.04;100.00
30554;BME280;17335;50.720;7.452;2023-01-28T08:44:48;100472.13;;;0.11;100.00
30554;BME280;17335;50.720;7.452;2023-01-28T08:47:15;100483.16;;;0.22;100.00
30554;BME280;17335;50.720;7.452;2023-01-28T08:49:42;100489.22;;;0.26;100.00
30554;BME280;17335;50.720;7.452;2023-01-28T08:52:09;100493.50;;;0.30;100.00
30554;BME280;17335;50.720;7.452;2023-01-28T08:54:36;100489.81;;;0.34;100.00
30554;BME280;17335;50.720;7.452;2023-01-28T08:57:04;100488.97;;;0.33;100.00
30554;BME280;17335;50.720;7.452;2023-01-28T08:59:31;100505.84;;;0.29;100.00
30554;BME280;17335;50.720;7.452;2023-01-28T09:01:58;100497.00;;;0.30;100.00
30554;BME280;17335;50.720;7.452;2023-01-28T09:04:26;100494.34;;;0.30;100.00
30554;BME280;17335;50.720;7.452;2023-01-28T09:06:53;100493.97;;;0.41;100.00
30554;BME280;17335;50.720;7.452;2023-01-28T09:09:20;100495.19;;;0.58;100.00
30554;BME280;17335;50.720;7.452;2023-01-28T09:11:47;100501.66;;;0.49;100.00
30554;BME280;17335;50.720;7.452;2023-01-28T09:14:14;100507.75;;;0.51;100.00
30554;BME280;17335;50.720;7.452;2023-01-28T09:16:42;100507.78;;;0.49;100.00
30554;BME280;17335;50.720;7.452;2023-01-28T09:19:09;100501.66;;;0.49;100.00
30554;BME280;17335;50.720;7.452;2023-01-28T09:21:38;100502.47;;;0.51;100.00
30554;BME280;17335;50.720;7.452;2023-01-28T09:24:09;100503.25;;;0.53;100.00
30554;BME280;17335;50.720;7.452;2023-01-28T09:26:37;100504.72;;;0.62;100.00
30554;BME280;17335;50.720;7.452;2023-01-28T09:29:04;100512.50;;;0.66;100.00
30554;BME280;17335;50.720;7.452;2023-01-28T09:31:31;100513.53;;;0.62;100.00
30554;BME280;17335;50.720;7.452;2023-01-28T09:33:58;100532.91;;;0.63;100.00
30554;BME280;17335;50.720;7.452;2023-01-28T09:36:26;100529.59;;;0.56;100.00
30554;BME280;17335;50.720;7.452;2023-01-28T09:38:53;100521.56;;;0.59;100.00
30554;BME280;17335;50.720;7.452;2023-01-28T09:41:32;100536.25;;;0.68;100.00
30554;BME280;17335;50.720;7.452;2023-01-28T09:47:10;100540.44;;;0.73;100.00
30554;BME280;17335;50.720;7.452;2023-01-28T09:49:47;100540.78;;;0.64;100.00
30554;BME280;17335;50.720;7.452;2023-01-28T09:52:18;100552.47;;;0.57;100.00
30554;BME280;17335;50.720;7.452;2023-01-28T09:54:52;100559.72;;;0.50;100.00
30554;BME280;17335;50.720;7.452;2023-01-28T09:57:30;100557.81;;;0.55;100.00
30554;BME280;17335;50.720;7.452;2023-01-28T10:00:02;100560.34;;;0.59;100.00
30554;BME280;17335;50.720;7.452;2023-01-28T10:03:02;100566.16;;;0.68;100.00
30554;BME280;17335;50.720;7.452;2023-01-28T10:13:45;100559.88;;;0.46;100.00
30554;BME280;17335;50.720;7.452;2023-01-28T10:19:06;100573.56;;;0.59;100.00
30554;BME280;17335;50.720;7.452;2023-01-28T10:21:42;100564.03;;;0.53;100.00
30554;BME280;17335;50.720;7.452;2023-01-28T10:27:18;100558.75;;;0.53;100.00
30554;BME280;17335;50.720;7.452;2023-01-28T10:29:47;100564.22;;;0.48;100.00
30554;BME280;17335;50.720;7.452;2023-01-28T10:32:17;100565.31;;;0.41;100.00
30554;BME280;17335;50.720;7.452;2023-01-28T10:34:47;100560.63;;;0.49;100.00
30554;BME280;17335;50.720;7.452;2023-01-28T10:37:14;100565.78;;;0.54;100.00
30554;BME280;17335;50.720;7.452;2023-01-28T10:39:44;100557.53;;;0.63;100.00
30554;BME280;17335;50.720;7.452;2023-01-28T10:42:29;100561.69;;;0.70;100.00
30554;BME280;17335;50.720;7.452;2023-01-28T10:44:59;100545.59;;;0.78;100.00
30554;BME280;17335;50.720;7.452;2023-01-28T10:47:32;100550.16;;;0.73;100.00
30554;BME280;17335;50.720;7.452;2023-01-28T10:50:01;100553.28;;;0.59;100.00
30554;BME280;17335;50.720;7.452;2023-01-28T10:52:29;100550.13;;;0.48;100.00
30554;BME280;17335;50.720;7.452;2023-01-28T10:55:04;100539.78;;;0.42;100.00
30554;BME280;17335;50.720;7.452;2023-01-28T10:57:34;100548.50;;;0.44;100.00
30554;BME280;17335;50.720;7.452;2023-01-28T11:00:16;100554.03;;;0.36;100.00
30554;BME280;17335;50.720;7.452;2023-01-28T11:02:48;100560.50;;;0.26;100.00
30554;BME280;17335;50.720;7.452;2023-01-28T11:05:21;100546.84;;;0.13;100.00
30554;BME280;17335;50.720;7.452;2023-01-28T11:07:48;100537.44;;;0.04;100.00
30554;BME280;17335;50.720;7.452;2023-01-28T11:10:41;100537.00;;;0.18;100.00
30554;BME280;17335;50.720;7.452;2023-01-28T11:16:01;100545.47;;;0.29;100.00
30554;BME280;17335;50.720;7.452;2023-01-28T11:18:34;100543.63;;;0.31;100.00
30554;BME280;17335;50.720;7.452;2023-01-28T11:21:06;100546.63;;;0.47;100.00
30554;BME280;17335;50.720;7.452;2023-01-28T11:23:50;100546.47;;;0.52;100.00
30554;BME280;17335;50.720;7.452;2023-01-28T11:26:37;100540.78;;;0.64;100.00
30554;BME280;17335;50.720;7.452;2023-01-28T11:29:05;100529.69;;;0.53;100.00
30554;BME280;17335;50.720;7.452;2023-01-28T11:31:42;100531.84;;;0.67;100.00
30554;BME280;17335;50.720;7.452;2023-01-28T11:34:15;100536.25;;;0.68;100.00
30554;BME280;17335;50.720;7.452;2023-01-28T11:36:53;100527.56;;;0.64;100.00
30554;BME280;17335;50.720;7.452;2023-01-28T11:39:24;100512.84;;;0.57;100.00
30554;BME280;17335;50.720;7.452;2023-01-28T11:41:54;100512.84;;;0.57;100.00
30554;BME280;17335;50.720;7.452;2023-01-28T11:44:28;100508.34;;;0.59;100.00
30554;BME280;17335;50.720;7.452;2023-01-28T12:03:51;100515.94;;;0.68;100.00
30554;BME280;17335;50.720;7.452;2023-01-28T12:09:24;100515.25;;;0.63;100.00
30554;BME280;17335;50.720;7.452;2023-01-28T12:12:01;100514.28;;;0.66;100.00
30554;BME280;17335;50.720;7.452;2023-01-28T12:15:01;100499.91;;;0.74;100.00
30554;BME280;17335;50.720;7.452;2023-01-28T12:28:29;100507.78;;;0.76;100.00
30554;BME280;17335;50.720;7.452;2023-01-28T12:34:21;100518.53;;;0.70;100.00
30554;BME280;17335;50.720;7.452;2023-01-28T12:37:31;100519.72;;;0.61;100.00
30554;BME280;17335;50.720;7.452;2023-01-28T12:42:31;100514.13;;;0.70;100.00
30554;BME280;17335;50.720;7.452;2023-01-28T12:47:43;100508.06;;;0.67;100.00
30554;BME280;17335;50.720;7.452;2023-01-28T12:50:18;100511.69;;;0.64;100.00
30554;BME280;17335;50.720;7.452;2023-01-28T12:52:51;100507.31;;;0.63;100.00
30554;BME280;17335;50.720;7.452;2023-01-28T12:55:43;100498.69;;;0.58;100.00
30554;BME280;17335;50.720;7.452;2023-01-28T12:58:16;100509.22;;;0.60;100.00
30554;BME280;17335;50.720;7.452;2023-01-28T13:00:49;100514.34;;;0.64;100.00
30554;BME280;17335;50.720;7.452;2023-01-28T13:03:24;100511.16;;;0.80;100.00
30554;BME280;17335;50.720;7.452;2023-01-28T13:05:59;100507.03;;;0.72;100.00
30554;BME280;17335;50.720;7.452;2023-01-28T13:08:28;100492.88;;;0.73;100.00
30554;BME280;17335;50.720;7.452;2023-01-28T13:11:01;100496.22;;;0.79;100.00
30554;BME280;17335;50.720;7.452;2023-01-28T13:13:31;100495.56;;;0.72;100.00
30554;BME280;17335;50.720;7.452;2023-01-28T13:16:00;100490.75;;;0.58;100.00
30554;BME280;17335;50.720;7.452;2023-01-28T13:18:47;100502.25;;;0.57;100.00
30554;BME280;17335;50.720;7.452;2023-01-28T13:23:51;100503.53;;;0.70;100.00
30554;BME280;17335;50.720;7.452;2023-01-28T13:31:48;100497.38;;;0.45;100.00
30554;BME280;17335;50.720;7.452;2023-01-28T13:34:28;100491.91;;;0.51;100.00
30554;BME280;17335;50.720;7.452;2023-01-28T13:36:56;100495.44;;;0.50;100.00
30554;BME280;17335;50.720;7.452;2023-01-28T13:39:25;100494.63;;;0.48;100.00
30554;BME280;17335;50.720;7.452;2023-01-28T13:41:54;100483.16;;;0.49;100.00
30554;BME280;17335;50.720;7.452;2023-01-28T13:46:52;100476.00;;;0.52;100.00
30554;BME280;17335;50.720;7.452;2023-01-28T13:52:24;100470.28;;;0.65;100.00
30554;BME280;17335;50.720;7.452;2023-01-28T13:55:15;100471.81;;;0.70;100.00
30554;BME280;17335;50.720;7.452;2023-01-28T14:03:47;100459.91;;;0.84;100.00
30554;BME280;17335;50.720;7.452;2023-01-28T14:09:38;100454.47;;;0.88;100.00
30554;BME280;17335;50.720;7.452;2023-01-28T14:15:03;100440.88;;;0.74;100.00
30554;BME280;17335;50.720;7.452;2023-01-28T14:17:54;100417.38;;;0.41;100.00
30554;BME280;17335;50.720;7.452;2023-01-28T14:20:32;100411.03;;;0.47;100.00
30554;BME280;17335;50.720;7.452;2023-01-28T14:23:17;100418.03;;;0.48;100.00
30554;BME280;17335;50.720;7.452;2023-01-28T14:26:06;100427.94;;;0.66;100.00
30554;BME280;17335;50.720;7.452;2023-01-28T14:31:43;100437.31;;;0.75;100.00
30554;BME280;17335;50.720;7.452;2023-01-28T14:34:30;100463.84;;;0.72;100.00
30554;BME280;17335;50.720;7.452;2023-01-28T14:37:05;100471.97;;;0.67;100.00
30554;BME280;17335;50.720;7.452;2023-01-28T14:39:44;100470.16;;;0.43;100.00
30554;BME280;17335;50.720;7.452;2023-01-28T14:42:25;100474.16;;;0.29;100.00
30554;BME280;17335;50.720;7.452;2023-01-28T14:53:25;100488.22;;;0.55;100.00
30554;BME280;17335;50.720;7.452;2023-01-28T14:56:15;100481.00;;;0.35;100.00
30554;BME280;17335;50.720;7.452;2023-01-28T15:01:45;100504.47;;;0.17;100.00
30554;BME280;17335;50.720;7.452;2023-01-28T15:06:51;100493.53;;;0.02;100.00
30554;BME280;17335;50.720;7.452;2023-01-28T15:09:22;100488.16;;;0.05;100.00